Time,TemperatureF,DewpointF,PressureIn,WindDirection,WindDirectionDegrees,WindSpeedMPH,WindSpeedGustMPH,Humidity,HourlyPrecipIn,Conditions,Clouds,dailyrainin,SolarRadiationWatts/m^2,SoftwareType,DateUTC
2013-05-26 00:01:00,48.0,33.0,-100.00,WNW,288,2.0,5.0,55,0.00,,,0.00,0.000000,,2013-05-26 04:01:00,
2013-05-26 00:23:00,48.0,33.0,-100.00,WNW,288,2.0,5.0,55,0.00,,,0.00,0.000000,,2013-05-26 04:23:00,
2013-05-26 00:33:00,48.0,33.0,-100.00,WNW,288,2.0,5.0,55,0.00,,,0.00,0.000000,,2013-05-26 04:33:00,
2013-05-26 00:43:00,48.0,33.0,-100.00,WNW,288,2.0,5.0,55,0.00,,,0.00,0.000000,,2013-05-26 04:43:00,
2013-05-26 00:52:00,48.0,33.0,-100.00,WNW,288,2.0,5.0,55,0.00,,,0.00,0.000000,,2013-05-26 04:52:00,
2013-05-26 01:01:00,48.0,34.0,-100.00,NW,308,2.0,5.0,57,0.00,,,0.00,0.000000,,2013-05-26 05:01:00,
2013-05-26 01:22:00,48.0,34.0,-100.00,NW,308,2.0,5.0,57,0.00,,,0.00,0.000000,,2013-05-26 05:22:00,
2013-05-26 01:32:00,48.0,34.0,-100.00,NW,308,2.0,5.0,57,0.00,,,0.00,0.000000,,2013-05-26 05:32:00,
2013-05-26 01:42:00,48.0,34.0,-100.00,NW,308,2.0,5.0,57,0.00,,,0.00,0.000000,,2013-05-26 05:42:00,
2013-05-26 01:52:00,48.0,34.0,-100.00,NW,308,2.0,5.0,57,0.00,,,0.00,0.000000,,2013-05-26 05:52:00,
2013-05-26 02:01:00,47.0,35.0,-100.00,WSW,251,2.0,8.0,63,0.00,,,0.00,0.000000,,2013-05-26 06:01:00,
2013-05-26 02:22:00,47.0,35.0,-100.00,WSW,251,2.0,8.0,63,0.00,,,0.00,0.000000,,2013-05-26 06:22:00,
2013-05-26 02:32:00,47.0,35.0,-100.00,WSW,251,2.0,8.0,63,0.00,,,0.00,0.000000,,2013-05-26 06:32:00,
2013-05-26 02:42:00,47.0,35.0,-100.00,WSW,251,2.0,8.0,63,0.00,,,0.00,0.000000,,2013-05-26 06:42:00,
2013-05-26 02:52:00,47.0,35.0,-100.00,WSW,251,2.0,8.0,63,0.00,,,0.00,0.000000,,2013-05-26 06:52:00,
2013-05-26 03:01:00,47.0,34.0,-100.00,SSE,165,2.0,9.0,61,0.00,,,0.00,0.000000,,2013-05-26 07:01:00,
2013-05-26 03:22:00,47.0,34.0,-100.00,SSE,165,2.0,9.0,61,0.00,,,0.00,0.000000,,2013-05-26 07:22:00,
2013-05-26 03:32:00,47.0,34.0,-100.00,SSE,165,2.0,9.0,61,0.00,,,0.00,0.000000,,2013-05-26 07:32:00,
2013-05-26 03:42:00,47.0,34.0,-100.00,SSE,165,2.0,9.0,61,0.00,,,0.00,0.000000,,2013-05-26 07:42:00,
2013-05-26 03:52:00,47.0,34.0,-100.00,SSE,165,2.0,9.0,61,0.00,,,0.00,0.000000,,2013-05-26 07:52:00,
2013-05-26 04:01:00,45.0,34.0,-100.00,WNW,289,2.0,5.0,65,0.00,,,0.00,0.000000,,2013-05-26 08:01:00,
2013-05-26 04:22:00,45.0,34.0,-100.00,WNW,289,2.0,5.0,65,0.00,,,0.00,0.000000,,2013-05-26 08:22:00,
2013-05-26 04:32:00,45.0,34.0,-100.00,WNW,289,2.0,5.0,65,0.00,,,0.00,0.000000,,2013-05-26 08:32:00,
2013-05-26 04:42:00,45.0,34.0,-100.00,WNW,289,2.0,5.0,65,0.00,,,0.00,0.000000,,2013-05-26 08:42:00,
2013-05-26 04:53:00,45.0,34.0,-100.00,WNW,289,2.0,5.0,65,0.00,,,0.00,0.000000,,2013-05-26 08:53:00,
2013-05-26 05:01:00,47.0,37.0,-100.00,NE,50,3.0,9.0,69,0.00,,,0.00,0.000000,,2013-05-26 09:01:00,
2013-05-26 05:22:00,47.0,37.0,-100.00,NE,50,3.0,9.0,69,0.00,,,0.00,0.000000,,2013-05-26 09:22:00,
2013-05-26 05:34:00,47.0,37.0,-100.00,NE,50,3.0,9.0,69,0.00,,,0.00,0.000000,,2013-05-26 09:34:00,
2013-05-26 05:43:00,47.0,37.0,-100.00,NE,50,3.0,9.0,69,0.00,,,0.00,0.000000,,2013-05-26 09:43:00,
2013-05-26 05:53:00,47.0,37.0,-100.00,NE,50,3.0,9.0,69,0.00,,,0.00,0.000000,,2013-05-26 09:53:00,
2013-05-26 06:01:00,46.0,33.0,-100.00,NE,56,2.0,6.0,60,0.00,,,0.00,1.000000,,2013-05-26 10:01:00,
2013-05-26 06:23:00,46.0,33.0,-100.00,NE,56,2.0,6.0,60,0.00,,,0.00,1.000000,,2013-05-26 10:23:00,
2013-05-26 06:33:00,46.0,33.0,-100.00,NE,56,2.0,6.0,60,0.00,,,0.00,1.000000,,2013-05-26 10:33:00,
2013-05-26 06:42:00,46.0,33.0,-100.00,NE,56,2.0,6.0,60,0.00,,,0.00,1.000000,,2013-05-26 10:42:00,
2013-05-26 06:52:00,46.0,33.0,-100.00,NE,56,2.0,6.0,60,0.00,,,0.00,1.000000,,2013-05-26 10:52:00,
2013-05-26 07:01:00,45.0,34.0,-100.00,North,3,1.0,4.0,66,0.00,,,0.00,25.000000,,2013-05-26 11:01:00,
2013-05-26 07:22:00,45.0,34.0,-100.00,North,3,1.0,4.0,66,0.00,,,0.00,25.000000,,2013-05-26 11:22:00,
2013-05-26 07:32:00,45.0,34.0,-100.00,North,3,1.0,4.0,66,0.00,,,0.00,25.000000,,2013-05-26 11:32:00,
2013-05-26 07:42:00,45.0,34.0,-100.00,North,3,1.0,4.0,66,0.00,,,0.00,25.000000,,2013-05-26 11:42:00,
2013-05-26 07:52:00,45.0,34.0,-100.00,North,3,1.0,4.0,66,0.00,,,0.00,25.000000,,2013-05-26 11:52:00,
2013-05-26 08:01:00,51.0,39.0,-100.00,ESE,109,3.0,5.0,63,0.00,,,0.00,224.000000,,2013-05-26 12:01:00,
2013-05-26 08:22:00,51.0,39.0,-100.00,ESE,109,3.0,5.0,63,0.00,,,0.00,224.000000,,2013-05-26 12:22:00,
2013-05-26 08:32:00,51.0,39.0,-100.00,ESE,109,3.0,5.0,63,0.00,,,0.00,224.000000,,2013-05-26 12:32:00,
2013-05-26 08:42:00,51.0,39.0,-100.00,ESE,109,3.0,5.0,63,0.00,,,0.00,224.000000,,2013-05-26 12:42:00,
2013-05-26 08:52:00,51.0,39.0,-100.00,ESE,109,3.0,5.0,63,0.00,,,0.00,224.000000,,2013-05-26 12:52:00,
2013-05-26 09:01:00,56.0,34.0,-100.00,ESE,104,3.0,11.0,43,0.00,,,0.00,503.000000,,2013-05-26 13:01:00,
2013-05-26 09:22:00,56.0,34.0,-100.00,ESE,104,3.0,11.0,43,0.00,,,0.00,503.000000,,2013-05-26 13:22:00,
2013-05-26 09:32:00,56.0,34.0,-100.00,ESE,104,3.0,11.0,43,0.00,,,0.00,503.000000,,2013-05-26 13:32:00,
2013-05-26 09:42:00,56.0,34.0,-100.00,ESE,104,3.0,11.0,43,0.00,,,0.00,503.000000,,2013-05-26 13:42:00,
2013-05-26 09:52:00,56.0,34.0,-100.00,ESE,104,3.0,11.0,43,0.00,,,0.00,503.000000,,2013-05-26 13:52:00,
2013-05-26 10:01:00,59.0,30.0,-100.00,NNE,32,4.0,11.0,33,0.00,,,0.00,730.000000,,2013-05-26 14:01:00,
2013-05-26 10:22:00,59.0,30.0,-100.00,NNE,32,4.0,11.0,33,0.00,,,0.00,730.000000,,2013-05-26 14:22:00,
2013-05-26 10:32:00,59.0,30.0,-100.00,NNE,32,4.0,11.0,33,0.00,,,0.00,730.000000,,2013-05-26 14:32:00,
2013-05-26 10:42:00,59.0,30.0,-100.00,NNE,32,4.0,11.0,33,0.00,,,0.00,730.000000,,2013-05-26 14:42:00,
2013-05-26 10:52:00,59.0,30.0,-100.00,NNE,32,4.0,11.0,33,0.00,,,0.00,730.000000,,2013-05-26 14:52:00,
2013-05-26 11:01:00,63.0,29.0,-100.00,North,351,4.0,9.0,28,0.00,,,0.00,921.000000,,2013-05-26 15:01:00,
2013-05-26 11:22:00,63.0,29.0,-100.00,North,351,4.0,9.0,28,0.00,,,0.00,921.000000,,2013-05-26 15:22:00,
2013-05-26 11:33:00,63.0,29.0,-100.00,North,351,4.0,9.0,28,0.00,,,0.00,921.000000,,2013-05-26 15:33:00,
2013-05-26 11:43:00,63.0,29.0,-100.00,North,351,4.0,9.0,28,0.00,,,0.00,921.000000,,2013-05-26 15:43:00,
2013-05-26 11:53:00,63.0,29.0,-100.00,North,351,4.0,9.0,28,0.00,,,0.00,921.000000,,2013-05-26 15:53:00,
2013-05-26 12:01:00,66.0,26.0,-100.00,NNE,19,5.0,10.0,22,0.00,,,0.00,1066.000000,,2013-05-26 16:01:00,
2013-05-26 12:23:00,66.0,26.0,-100.00,NNE,19,5.0,10.0,22,0.00,,,0.00,1066.000000,,2013-05-26 16:23:00,
2013-05-26 12:33:00,66.0,26.0,-100.00,NNE,19,5.0,10.0,22,0.00,,,0.00,1066.000000,,2013-05-26 16:33:00,
2013-05-26 12:42:00,66.0,26.0,-100.00,NNE,19,5.0,10.0,22,0.00,,,0.00,1066.000000,,2013-05-26 16:42:00,
2013-05-26 12:53:00,66.0,26.0,-100.00,NNE,19,5.0,10.0,22,0.00,,,0.00,1066.000000,,2013-05-26 16:53:00,
2013-05-26 13:01:00,70.0,26.0,-100.00,NNW,332,4.0,16.0,19,0.00,,,0.00,1148.000000,,2013-05-26 17:01:00,
2013-05-26 13:23:00,70.0,26.0,-100.00,NNW,332,4.0,16.0,19,0.00,,,0.00,1148.000000,,2013-05-26 17:23:00,
2013-05-26 13:32:00,70.0,26.0,-100.00,NNW,332,4.0,16.0,19,0.00,,,0.00,1148.000000,,2013-05-26 17:32:00,
2013-05-26 13:42:00,70.0,26.0,-100.00,NNW,332,4.0,16.0,19,0.00,,,0.00,1148.000000,,2013-05-26 17:42:00,
2013-05-26 13:52:00,70.0,26.0,-100.00,NNW,332,4.0,16.0,19,0.00,,,0.00,1148.000000,,2013-05-26 17:52:00,
2013-05-26 14:01:00,71.0,23.0,-100.00,North,1,5.0,11.0,16,0.00,,,0.00,1167.000000,,2013-05-26 18:01:00,
2013-05-26 14:22:00,71.0,23.0,-100.00,North,1,5.0,11.0,16,0.00,,,0.00,1167.000000,,2013-05-26 18:22:00,
2013-05-26 14:32:00,71.0,23.0,-100.00,North,1,5.0,11.0,16,0.00,,,0.00,1167.000000,,2013-05-26 18:32:00,
2013-05-26 14:42:00,71.0,23.0,-100.00,North,1,5.0,11.0,16,0.00,,,0.00,1167.000000,,2013-05-26 18:42:00,
2013-05-26 14:52:00,71.0,23.0,-100.00,North,1,5.0,11.0,16,0.00,,,0.00,1167.000000,,2013-05-26 18:52:00,
2013-05-26 15:01:00,73.0,23.0,-100.00,NNW,334,4.0,12.0,15,0.00,,,0.00,1099.000000,,2013-05-26 19:01:00,
2013-05-26 15:22:00,73.0,23.0,-100.00,NNW,334,4.0,12.0,15,0.00,,,0.00,1099.000000,,2013-05-26 19:22:00,
2013-05-26 15:32:00,73.0,23.0,-100.00,NNW,334,4.0,12.0,15,0.00,,,0.00,1099.000000,,2013-05-26 19:32:00,
2013-05-26 15:42:00,73.0,23.0,-100.00,NNW,334,4.0,12.0,15,0.00,,,0.00,1099.000000,,2013-05-26 19:42:00,
2013-05-26 15:52:00,73.0,23.0,-100.00,NNW,334,4.0,12.0,15,0.00,,,0.00,1099.000000,,2013-05-26 19:52:00,
2013-05-26 16:01:00,73.0,21.0,-100.00,NW,315,4.0,11.0,14,0.00,,,0.00,993.000000,,2013-05-26 20:01:00,
2013-05-26 16:22:00,73.0,21.0,-100.00,NW,315,4.0,11.0,14,0.00,,,0.00,993.000000,,2013-05-26 20:22:00,
2013-05-26 16:32:00,73.0,21.0,-100.00,NW,315,4.0,11.0,14,0.00,,,0.00,993.000000,,2013-05-26 20:32:00,
2013-05-26 16:42:00,73.0,21.0,-100.00,NW,315,4.0,11.0,14,0.00,,,0.00,993.000000,,2013-05-26 20:42:00,
2013-05-26 16:52:00,73.0,21.0,-100.00,NW,315,4.0,11.0,14,0.00,,,0.00,993.000000,,2013-05-26 20:52:00,
2013-05-26 17:01:00,71.0,21.0,-100.00,NNW,328,4.0,10.0,15,0.00,,,0.00,749.000000,,2013-05-26 21:01:00,
2013-05-26 17:22:00,71.0,21.0,-100.00,NNW,328,4.0,10.0,15,0.00,,,0.00,749.000000,,2013-05-26 21:22:00,
2013-05-26 17:33:00,71.0,21.0,-100.00,NNW,328,4.0,10.0,15,0.00,,,0.00,749.000000,,2013-05-26 21:33:00,
2013-05-26 17:43:00,71.0,21.0,-100.00,NNW,328,4.0,10.0,15,0.00,,,0.00,749.000000,,2013-05-26 21:43:00,
2013-05-26 17:53:00,71.0,21.0,-100.00,NNW,328,4.0,10.0,15,0.00,,,0.00,749.000000,,2013-05-26 21:53:00,
2013-05-26 18:01:00,70.0,22.0,-100.00,NW,316,4.0,8.0,16,0.00,,,0.00,565.000000,,2013-05-26 22:01:00,
2013-05-26 18:23:00,70.0,22.0,-100.00,NW,316,4.0,8.0,16,0.00,,,0.00,565.000000,,2013-05-26 22:23:00,
2013-05-26 18:33:00,70.0,22.0,-100.00,NW,316,4.0,8.0,16,0.00,,,0.00,565.000000,,2013-05-26 22:33:00,
2013-05-26 18:42:00,70.0,22.0,-100.00,NW,316,4.0,8.0,16,0.00,,,0.00,565.000000,,2013-05-26 22:42:00,
2013-05-26 18:53:00,70.0,22.0,-100.00,NW,316,4.0,8.0,16,0.00,,,0.00,565.000000,,2013-05-26 22:53:00,
2013-05-26 19:01:00,65.0,26.0,-100.00,WNW,289,3.0,7.0,23,0.00,,,0.00,239.000000,,2013-05-26 23:01:00,
2013-05-26 19:22:00,65.0,26.0,-100.00,WNW,289,3.0,7.0,23,0.00,,,0.00,239.000000,,2013-05-26 23:22:00,
2013-05-26 19:32:00,65.0,26.0,-100.00,WNW,289,3.0,7.0,23,0.00,,,0.00,239.000000,,2013-05-26 23:32:00,
2013-05-26 19:43:00,65.0,26.0,-100.00,WNW,289,3.0,7.0,23,0.00,,,0.00,239.000000,,2013-05-26 23:43:00,
2013-05-26 19:52:00,65.0,26.0,-100.00,WNW,289,3.0,7.0,23,0.00,,,0.00,239.000000,,2013-05-26 23:52:00,
2013-05-26 20:01:00,61.0,24.0,-100.00,WNW,283,3.0,8.0,24,0.00,,,0.00,51.000000,,2013-05-27 00:01:00,
2013-05-26 20:22:00,61.0,24.0,-100.00,WNW,283,3.0,8.0,24,0.00,,,0.00,51.000000,,2013-05-27 00:22:00,
2013-05-26 20:32:00,61.0,24.0,-100.00,WNW,283,3.0,8.0,24,0.00,,,0.00,51.000000,,2013-05-27 00:32:00,
2013-05-26 20:42:00,61.0,24.0,-100.00,WNW,283,3.0,8.0,24,0.00,,,0.00,51.000000,,2013-05-27 00:42:00,
2013-05-26 20:52:00,61.0,24.0,-100.00,WNW,283,3.0,8.0,24,0.00,,,0.00,51.000000,,2013-05-27 00:52:00,
2013-05-26 21:01:00,58.0,25.0,-100.00,NW,317,4.0,8.0,28,0.00,,,0.00,6.000000,,2013-05-27 01:01:00,
2013-05-26 21:22:00,58.0,25.0,-100.00,NW,317,4.0,8.0,28,0.00,,,0.00,6.000000,,2013-05-27 01:22:00,
2013-05-26 21:32:00,58.0,25.0,-100.00,NW,317,4.0,8.0,28,0.00,,,0.00,6.000000,,2013-05-27 01:32:00,
2013-05-26 21:42:00,58.0,25.0,-100.00,NW,317,4.0,8.0,28,0.00,,,0.00,6.000000,,2013-05-27 01:42:00,
2013-05-26 21:52:00,58.0,25.0,-100.00,NW,317,4.0,8.0,28,0.00,,,0.00,6.000000,,2013-05-27 01:52:00,
2013-05-26 22:01:00,58.0,28.0,-100.00,North,353,4.0,10.0,31,0.00,,,0.00,0.000000,,2013-05-27 02:01:00,
2013-05-26 22:22:00,58.0,28.0,-100.00,North,353,4.0,10.0,31,0.00,,,0.00,0.000000,,2013-05-27 02:22:00,
2013-05-26 22:32:00,58.0,28.0,-100.00,North,353,4.0,10.0,31,0.00,,,0.00,0.000000,,2013-05-27 02:32:00,
2013-05-26 22:43:00,58.0,28.0,-100.00,North,353,4.0,10.0,31,0.00,,,0.00,0.000000,,2013-05-27 02:43:00,
2013-05-26 22:52:00,58.0,28.0,-100.00,North,353,4.0,10.0,31,0.00,,,0.00,0.000000,,2013-05-27 02:52:00,
2013-05-26 23:01:00,56.0,27.0,-100.00,ESE,111,3.0,11.0,33,0.00,,,0.00,0.000000,,2013-05-27 03:01:00,
2013-05-26 23:21:00,56.0,27.0,-100.00,ESE,111,3.0,11.0,33,0.00,,,0.00,0.000000,,2013-05-27 03:21:00,
2013-05-26 23:33:00,56.0,27.0,-100.00,ESE,111,3.0,11.0,33,0.00,,,0.00,0.000000,,2013-05-27 03:33:00,
2013-05-26 23:43:00,56.0,27.0,-100.00,ESE,111,3.0,11.0,33,0.00,,,0.00,0.000000,,2013-05-27 03:43:00,
2013-05-26 23:53:00,56.0,27.0,-100.00,ESE,111,3.0,11.0,33,0.00,,,0.00,0.000000,,2013-05-27 03:53:00,